»·PEaware :: N2348J KBUR-KLAS

N2348J :: KBUR-KLAS

FLIGHT INFORMATION

Flight Status: Arrived
Operator: Privately registered:
United States
More flights under this callsign
Pilot: Dan A. (28807)
Aircraft: BEECH AIRCRAFT A90-E90 KING AIR
(BE9L)
More flights by this aircraft type
Origin: KBUR Bob Hope-Burbank
United States
Destination: KLAS McCarran Intl
United States
More flights between these airports :: More routes between these airports
Route: +VNY3 DAG CRESO4
File this flight plan on PilotEdge
Remarks:
Altitude:
(Current/Filed)
11,000ft
Speed:
(Current/Filed)
200kts
Departed: 17-May-20 01:51 PM
Arrived: 17-May-20 03:00 PM
Distance/Time
Traveled:
194nm/1:09
Distance/Time
To Go:
Arrived

Flight Plot

Page will automatically refresh every two minutes.


Map Options




Map Legend


Flown Route
Filed Route
Departure Airport
Arrival Airport
Navaid (VOR, NDB)
Fix

Horizontal Profiles

Position Reports

Time Latitude Longitude Heading Altitude Ground
Speed
17-May-20 13:32 34.200216 -118.358843 258 779ft 0kts
17-May-20 13:33 34.200216 -118.358843 258 779ft 0kts
17-May-20 13:34 34.200216 -118.358843 258 779ft 0kts
17-May-20 13:35 34.200216 -118.358843 258 779ft 0kts
17-May-20 13:36 34.200216 -118.358843 258 779ft 0kts
17-May-20 13:37 34.200216 -118.358843 258 779ft 0kts
17-May-20 13:38 34.200216 -118.358843 258 779ft 0kts
17-May-20 13:39 34.200216 -118.358843 258 779ft 0kts
17-May-20 13:40 34.200216 -118.358843 258 779ft 0kts
17-May-20 13:41 34.200216 -118.358843 258 779ft 0kts
17-May-20 13:42 34.200216 -118.358843 258 779ft 0kts
17-May-20 13:43 34.200216 -118.358843 258 779ft 0kts
17-May-20 13:44 34.200351 -118.359092 300 779ft 5kts
17-May-20 13:46 34.201700 -118.359144 76 779ft 0kts
17-May-20 13:47 34.204820 -118.359537 347 779ft 16kts
17-May-20 13:48 34.208951 -118.360677 346 779ft 14kts
17-May-20 13:49 34.211984 -118.361302 45 779ft 0kts
17-May-20 13:50 34.211984 -118.361302 45 779ft 0kts
17-May-20 13:51 34.210658 -118.360021 170 779ft 60kts
17-May-20 13:52 34.179172 -118.358559 218 2349ft 118kts
17-May-20 13:53 34.157594 -118.385487 212 3656ft 123kts
17-May-20 13:54 34.137443 -118.414829 235 5229ft 124kts
17-May-20 13:55 34.158495 -118.443628 354 6942ft 140kts
17-May-20 13:56 34.199267 -118.449734 347 8416ft 149kts
17-May-20 13:57 34.241347 -118.451006 350 9826ft 154kts
17-May-20 13:58 34.284347 -118.455323 352 11068ft 162kts
17-May-20 13:59 34.328830 -118.451739 351 12335ft 159kts
17-May-20 14:00 34.374962 -118.458777 356 13074ft 188kts
17-May-20 14:01 34.414865 -118.409999 60 13085ft 227kts
17-May-20 14:01 34.443580 -118.354789 61 13161ft 232kts
17-May-20 14:03 34.490749 -118.280885 48 13061ft 239kts
17-May-20 14:03 34.528217 -118.230742 49 13088ft 238kts
17-May-20 14:04 34.573110 -118.171042 54 13001ft 243kts
17-May-20 14:06 34.616179 -118.092282 56 13074ft 240kts
17-May-20 14:06 34.638286 -118.032176 86 13066ft 235kts
17-May-20 14:07 34.647397 -117.952490 84 12891ft 239kts
17-May-20 14:08 34.654413 -117.873880 89 12989ft 235kts
17-May-20 14:09 34.661273 -117.795100 88 12826ft 240kts
17-May-20 14:10 34.676226 -117.718864 74 13088ft 235kts
17-May-20 14:11 34.697391 -117.643739 75 13017ft 234kts
17-May-20 14:12 34.715842 -117.568210 76 12981ft 231kts
17-May-20 14:13 34.734534 -117.493825 75 12996ft 230kts
17-May-20 14:14 34.753843 -117.419660 73 13016ft 229kts
17-May-20 14:15 34.773074 -117.345533 76 13033ft 229kts
17-May-20 14:16 34.791710 -117.271405 76 13021ft 229kts
17-May-20 14:17 34.811208 -117.196986 74 12954ft 231kts
17-May-20 14:18 34.830084 -117.122767 75 12968ft 230kts
17-May-20 14:19 34.848903 -117.048439 76 12964ft 229kts
17-May-20 14:20 34.865392 -116.974042 79 12978ft 225kts
17-May-20 14:21 34.882152 -116.900724 75 12993ft 223kts
17-May-20 14:22 34.899948 -116.828354 76 12985ft 222kts
17-May-20 14:23 34.917881 -116.756387 76 13017ft 221kts
17-May-20 14:24 34.936656 -116.684033 75 13004ft 225kts
17-May-20 14:25 34.954582 -116.610956 76 13082ft 224kts
17-May-20 14:26 34.980434 -116.541340 62 13056ft 231kts
17-May-20 14:27 35.010169 -116.471714 65 13027ft 231kts
17-May-20 14:28 35.040124 -116.402321 63 12998ft 232kts
17-May-20 14:29 35.071870 -116.333404 65 12964ft 232kts
17-May-20 14:30 35.102122 -116.264137 67 12962ft 230kts
17-May-20 14:31 35.132358 -116.195327 66 12997ft 228kts
17-May-20 14:32 35.162181 -116.126801 64 13004ft 229kts
17-May-20 14:33 35.192583 -116.058721 66 13023ft 228kts
17-May-20 14:34 35.223278 -115.990546 60 13047ft 229kts
17-May-20 14:35 35.253977 -115.922355 66 13059ft 228kts
17-May-20 14:36 35.284227 -115.853900 63 13046ft 230kts
17-May-20 14:37 35.316068 -115.786099 59 13016ft 232kts
17-May-20 14:38 35.357631 -115.725162 51 12992ft 233kts
17-May-20 14:39 35.399108 -115.664461 52 12941ft 235kts
17-May-20 14:40 35.445420 -115.602727 45 11635ft 259kts
17-May-20 14:41 35.494582 -115.540707 48 10264ft 244kts
17-May-20 14:42 35.540569 -115.482987 49 10039ft 229kts
17-May-20 14:43 35.583163 -115.425684 49 10131ft 220kts
17-May-20 14:44 35.626043 -115.369198 48 9892ft 232kts
17-May-20 14:45 35.667980 -115.308343 52 8834ft 232kts
17-May-20 14:46 35.710873 -115.248001 48 7497ft 236kts
17-May-20 14:47 35.753556 -115.192169 43 7115ft 213kts
17-May-20 14:48 35.809019 -115.170799 13 7115ft 208kts
17-May-20 14:49 35.865871 -115.155096 8 7078ft 208kts
17-May-20 14:50 35.922434 -115.140838 12 7087ft 203kts
17-May-20 14:51 35.977481 -115.122027 12 6406ft 205kts
17-May-20 14:52 36.033162 -115.109648 7 5438ft 201kts
17-May-20 14:53 36.089387 -115.098362 15 4204ft 207kts
17-May-20 14:54 36.138883 -115.071635 29 3760ft 154kts
17-May-20 14:55 36.167816 -115.082939 252 3345ft 112kts
17-May-20 14:56 36.154491 -115.116093 233 3255ft 109kts
17-May-20 14:57 36.133373 -115.137642 201 2954ft 95kts
17-May-20 14:58 36.109558 -115.150708 205 2495ft 89kts
17-May-20 14:59 36.091088 -115.161374 206 2184ft 26kts
17-May-20 15:00 36.089387 -115.163464 296 2184ft 0kts
17-May-20 15:01 36.089387 -115.163463 296 2184ft 0kts
17-May-20 15:02 36.089906 -115.164390 12 2184ft 8kts
17-May-20 15:03 36.092887 -115.162714 24 2184ft 13kts
17-May-20 15:04 36.096689 -115.160545 24 2184ft 15kts
17-May-20 15:05 36.098346 -115.160690 322 2184ft 7kts
17-May-20 15:06 36.099082 -115.160821 117 2184ft 0kts
17-May-20 15:07 36.099080 -115.160817 118 2184ft 0kts
17-May-20 15:08 36.099080 -115.160817 118 2184ft 0kts

Navigation Log

Ident Type
Flight plan parsing failed, navigation log unavailable